sensor_id;sensor_type;location;lat;lon;timestamp;temperature;humidity
46706;DHT22;33519;50.712;7.124;2023-04-15T00:00:56;5.80;99.90
46706;DHT22;33519;50.712;7.124;2023-04-15T00:03:23;5.70;99.90
46706;DHT22;33519;50.712;7.124;2023-04-15T00:05:50;5.60;99.90
46706;DHT22;33519;50.712;7.124;2023-04-15T00:08:17;5.50;99.90
46706;DHT22;33519;50.712;7.124;2023-04-15T00:10:43;5.50;99.90
46706;DHT22;33519;50.712;7.124;2023-04-15T00:13:11;5.50;99.90
46706;DHT22;33519;50.712;7.124;2023-04-15T00:15:38;5.50;99.90
46706;DHT22;33519;50.712;7.124;2023-04-15T00:18:05;5.50;99.90
46706;DHT22;33519;50.712;7.124;2023-04-15T00:20:33;5.60;99.90
46706;DHT22;33519;50.712;7.124;2023-04-15T00:23:00;5.50;99.90
46706;DHT22;33519;50.712;7.124;2023-04-15T00:25:28;5.50;99.90
46706;DHT22;33519;50.712;7.124;2023-04-15T00:27:54;5.40;99.90
46706;DHT22;33519;50.712;7.124;2023-04-15T00:30:33;5.40;99.90
46706;DHT22;33519;50.712;7.124;2023-04-15T00:33:00;5.40;99.90
46706;DHT22;33519;50.712;7.124;2023-04-15T00:35:29;5.50;99.90
46706;DHT22;33519;50.712;7.124;2023-04-15T00:37:59;5.50;99.90
46706;DHT22;33519;50.712;7.124;2023-04-15T00:40:26;5.40;99.90
46706;DHT22;33519;50.712;7.124;2023-04-15T00:42:53;5.40;99.90
46706;DHT22;33519;50.712;7.124;2023-04-15T00:45:19;5.40;99.90
46706;DHT22;33519;50.712;7.124;2023-04-15T00:47:46;5.40;99.90
46706;DHT22;33519;50.712;7.124;2023-04-15T00:50:13;5.40;99.90
46706;DHT22;33519;50.712;7.124;2023-04-15T00:52:40;5.30;99.90
46706;DHT22;33519;50.712;7.124;2023-04-15T00:55:09;5.20;99.90
46706;DHT22;33519;50.712;7.124;2023-04-15T00:57:39;5.10;99.90
46706;DHT22;33519;50.712;7.124;2023-04-15T01:00:18;5.00;99.90
46706;DHT22;33519;50.712;7.124;2023-04-15T01:02:50;4.90;99.90
46706;DHT22;33519;50.712;7.124;2023-04-15T01:05:18;4.90;99.90
46706;DHT22;33519;50.712;7.124;2023-04-15T01:07:49;4.80;99.90
46706;DHT22;33519;50.712;7.124;2023-04-15T01:10:16;4.80;99.90
46706;DHT22;33519;50.712;7.124;2023-04-15T01:12:44;4.80;99.90
46706;DHT22;33519;50.712;7.124;2023-04-15T01:15:13;4.70;99.90
46706;DHT22;33519;50.712;7.124;2023-04-15T01:17:43;4.70;99.90
46706;DHT22;33519;50.712;7.124;2023-04-15T01:20:18;4.60;99.90
46706;DHT22;33519;50.712;7.124;2023-04-15T01:22:47;4.50;99.90
46706;DHT22;33519;50.712;7.124;2023-04-15T01:25:18;4.50;99.90
46706;DHT22;33519;50.712;7.124;2023-04-15T01:27:45;4.60;99.90
46706;DHT22;33519;50.712;7.124;2023-04-15T01:30:15;4.50;99.90
46706;DHT22;33519;50.712;7.124;2023-04-15T01:32:42;4.50;99.90
46706;DHT22;33519;50.712;7.124;2023-04-15T01:35:09;4.60;99.90
46706;DHT22;33519;50.712;7.124;2023-04-15T01:37:36;4.70;99.90
46706;DHT22;33519;50.712;7.124;2023-04-15T01:40:03;4.70;99.90
46706;DHT22;33519;50.712;7.124;2023-04-15T01:42:31;4.50;99.90
46706;DHT22;33519;50.712;7.124;2023-04-15T01:44:58;4.40;99.90
46706;DHT22;33519;50.712;7.124;2023-04-15T01:47:24;4.40;99.90
46706;DHT22;33519;50.712;7.124;2023-04-15T01:49:51;4.30;99.90
46706;DHT22;33519;50.712;7.124;2023-04-15T01:52:17;4.20;99.90
46706;DHT22;33519;50.712;7.124;2023-04-15T01:54:44;4.20;99.90
46706;DHT22;33519;50.712;7.124;2023-04-15T01:57:11;4.20;99.90
46706;DHT22;33519;50.712;7.124;2023-04-15T01:59:38;4.20;99.90
46706;DHT22;33519;50.712;7.124;2023-04-15T02:02:04;4.20;99.90
46706;DHT22;33519;50.712;7.124;2023-04-15T02:04:31;4.10;99.90
46706;DHT22;33519;50.712;7.124;2023-04-15T02:06:58;4.10;99.90
46706;DHT22;33519;50.712;7.124;2023-04-15T02:09:25;4.00;99.90
46706;DHT22;33519;50.712;7.124;2023-04-15T02:11:51;3.90;99.90
46706;DHT22;33519;50.712;7.124;2023-04-15T02:14:19;3.90;99.90
46706;DHT22;33519;50.712;7.124;2023-04-15T02:16:46;3.90;99.90
46706;DHT22;33519;50.712;7.124;2023-04-15T02:19:13;3.90;99.90
46706;DHT22;33519;50.712;7.124;2023-04-15T02:21:40;4.00;99.90
46706;DHT22;33519;50.712;7.124;2023-04-15T02:24:07;4.00;99.90
46706;DHT22;33519;50.712;7.124;2023-04-15T02:26:33;4.00;99.90
46706;DHT22;33519;50.712;7.124;2023-04-15T02:29:00;3.90;99.90
46706;DHT22;33519;50.712;7.124;2023-04-15T02:31:27;3.90;99.90
46706;DHT22;33519;50.712;7.124;2023-04-15T02:33:54;3.80;99.90
46706;DHT22;33519;50.712;7.124;2023-04-15T02:36:20;3.70;99.90
46706;DHT22;33519;50.712;7.124;2023-04-15T02:38:47;3.60;99.90
46706;DHT22;33519;50.712;7.124;2023-04-15T02:41:13;3.60;99.90
46706;DHT22;33519;50.712;7.124;2023-04-15T02:43:40;3.40;99.90
46706;DHT22;33519;50.712;7.124;2023-04-15T02:46:07;3.40;99.90
46706;DHT22;33519;50.712;7.124;2023-04-15T02:48:34;3.30;99.90
46706;DHT22;33519;50.712;7.124;2023-04-15T02:51:10;3.40;99.90
46706;DHT22;33519;50.712;7.124;2023-04-15T02:53:37;3.40;99.90
46706;DHT22;33519;50.712;7.124;2023-04-15T02:56:03;3.30;99.90
46706;DHT22;33519;50.712;7.124;2023-04-15T02:58:31;3.30;99.90
46706;DHT22;33519;50.712;7.124;2023-04-15T03:00:58;3.30;99.90
46706;DHT22;33519;50.712;7.124;2023-04-15T03:03:24;3.20;99.90
46706;DHT22;33519;50.712;7.124;2023-04-15T03:05:53;3.20;99.90
46706;DHT22;33519;50.712;7.124;2023-04-15T03:08:20;3.30;99.90
46706;DHT22;33519;50.712;7.124;2023-04-15T03:10:47;3.30;99.90
46706;DHT22;33519;50.712;7.124;2023-04-15T03:13:13;3.40;99.90
46706;DHT22;33519;50.712;7.124;2023-04-15T03:15:42;3.40;99.90
46706;DHT22;33519;50.712;7.124;2023-04-15T03:18:09;3.30;99.90
46706;DHT22;33519;50.712;7.124;2023-04-15T03:20:35;3.30;99.90
46706;DHT22;33519;50.712;7.124;2023-04-15T03:23:02;3.20;99.90
46706;DHT22;33519;50.712;7.124;2023-04-15T03:25:29;3.20;99.90
46706;DHT22;33519;50.712;7.124;2023-04-15T03:27:55;3.10;99.90
46706;DHT22;33519;50.712;7.124;2023-04-15T03:30:22;3.30;99.90
46706;DHT22;33519;50.712;7.124;2023-04-15T03:32:49;3.30;99.90
46706;DHT22;33519;50.712;7.124;2023-04-15T03:35:16;3.30;99.90
46706;DHT22;33519;50.712;7.124;2023-04-15T03:37:42;3.20;99.90
46706;DHT22;33519;50.712;7.124;2023-04-15T03:40:09;3.20;99.90
46706;DHT22;33519;50.712;7.124;2023-04-15T03:42:36;3.10;99.90
46706;DHT22;33519;50.712;7.124;2023-04-15T03:45:03;3.10;99.90
46706;DHT22;33519;50.712;7.124;2023-04-15T03:47:29;3.10;99.90
46706;DHT22;33519;50.712;7.124;2023-04-15T03:49:56;3.10;99.90
46706;DHT22;33519;50.712;7.124;2023-04-15T03:52:23;2.90;99.90
46706;DHT22;33519;50.712;7.124;2023-04-15T03:54:49;2.90;99.90
46706;DHT22;33519;50.712;7.124;2023-04-15T03:57:17;2.90;99.90
46706;DHT22;33519;50.712;7.124;2023-04-15T03:59:44;2.90;99.90
46706;DHT22;33519;50.712;7.124;2023-04-15T04:02:11;2.80;99.90
46706;DHT22;33519;50.712;7.124;2023-04-15T04:04:37;2.80;99.90
46706;DHT22;33519;50.712;7.124;2023-04-15T04:07:04;2.80;99.90
46706;DHT22;33519;50.712;7.124;2023-04-15T04:09:30;2.80;99.90
46706;DHT22;33519;50.712;7.124;2023-04-15T04:11:57;2.70;99.90
46706;DHT22;33519;50.712;7.124;2023-04-15T04:14:23;2.70;99.90
46706;DHT22;33519;50.712;7.124;2023-04-15T04:16:54;2.60;99.90
46706;DHT22;33519;50.712;7.124;2023-04-15T04:19:22;2.70;99.90
46706;DHT22;33519;50.712;7.124;2023-04-15T04:21:49;2.70;99.90
46706;DHT22;33519;50.712;7.124;2023-04-15T04:24:16;2.70;99.90
46706;DHT22;33519;50.712;7.124;2023-04-15T04:26:43;2.60;99.90
46706;DHT22;33519;50.712;7.124;2023-04-15T04:29:09;2.70;99.90
46706;DHT22;33519;50.712;7.124;2023-04-15T04:31:36;2.70;99.90
46706;DHT22;33519;50.712;7.124;2023-04-15T04:34:03;2.70;99.90
46706;DHT22;33519;50.712;7.124;2023-04-15T04:36:29;2.60;99.90
46706;DHT22;33519;50.712;7.124;2023-04-15T04:38:56;2.50;99.90
46706;DHT22;33519;50.712;7.124;2023-04-15T04:41:23;2.60;99.90
46706;DHT22;33519;50.712;7.124;2023-04-15T04:43:49;2.60;99.90
46706;DHT22;33519;50.712;7.124;2023-04-15T04:46:16;2.50;99.90
46706;DHT22;33519;50.712;7.124;2023-04-15T04:48:42;2.50;99.90
46706;DHT22;33519;50.712;7.124;2023-04-15T04:51:12;2.50;99.90
46706;DHT22;33519;50.712;7.124;2023-04-15T04:53:41;2.50;99.90
46706;DHT22;33519;50.712;7.124;2023-04-15T04:56:08;2.50;99.90
46706;DHT22;33519;50.712;7.124;2023-04-15T04:58:38;2.50;99.90
46706;DHT22;33519;50.712;7.124;2023-04-15T05:01:04;2.50;99.90
46706;DHT22;33519;50.712;7.124;2023-04-15T05:03:34;2.60;99.90
46706;DHT22;33519;50.712;7.124;2023-04-15T05:06:04;2.70;99.90
46706;DHT22;33519;50.712;7.124;2023-04-15T05:08:34;2.70;99.90
46706;DHT22;33519;50.712;7.124;2023-04-15T05:11:01;2.80;99.90
46706;DHT22;33519;50.712;7.124;2023-04-15T05:13:48;2.80;99.90
46706;DHT22;33519;50.712;7.124;2023-04-15T05:16:17;2.80;99.90
46706;DHT22;33519;50.712;7.124;2023-04-15T05:18:47;2.80;99.90
46706;DHT22;33519;50.712;7.124;2023-04-15T05:21:14;2.90;99.90
46706;DHT22;33519;50.712;7.124;2023-04-15T05:23:44;2.90;99.90
46706;DHT22;33519;50.712;7.124;2023-04-15T05:26:10;2.90;99.90
46706;DHT22;33519;50.712;7.124;2023-04-15T05:28:37;3.00;99.90
46706;DHT22;33519;50.712;7.124;2023-04-15T05:31:03;3.00;99.90
46706;DHT22;33519;50.712;7.124;2023-04-15T05:33:30;3.10;99.90
46706;DHT22;33519;50.712;7.124;2023-04-15T05:35:57;3.20;99.90
46706;DHT22;33519;50.712;7.124;2023-04-15T05:38:23;3.40;99.90
46706;DHT22;33519;50.712;7.124;2023-04-15T05:40:50;3.40;99.90
46706;DHT22;33519;50.712;7.124;2023-04-15T05:43:17;3.50;99.90
46706;DHT22;33519;50.712;7.124;2023-04-15T05:45:43;3.50;99.90
46706;DHT22;33519;50.712;7.124;2023-04-15T05:48:10;3.60;99.90
46706;DHT22;33519;50.712;7.124;2023-04-15T05:50:39;3.70;99.90
46706;DHT22;33519;50.712;7.124;2023-04-15T05:53:06;3.80;99.90
46706;DHT22;33519;50.712;7.124;2023-04-15T05:55:33;3.90;99.90
46706;DHT22;33519;50.712;7.124;2023-04-15T05:58:00;4.00;99.90
46706;DHT22;33519;50.712;7.124;2023-04-15T06:00:27;4.10;99.90
46706;DHT22;33519;50.712;7.124;2023-04-15T06:02:55;4.20;99.90
46706;DHT22;33519;50.712;7.124;2023-04-15T06:05:22;4.30;99.90
46706;DHT22;33519;50.712;7.124;2023-04-15T06:07:49;4.60;99.90
46706;DHT22;33519;50.712;7.124;2023-04-15T06:10:16;4.70;99.90
46706;DHT22;33519;50.712;7.124;2023-04-15T06:12:43;4.90;99.90
46706;DHT22;33519;50.712;7.124;2023-04-15T06:15:10;5.00;99.90
46706;DHT22;33519;50.712;7.124;2023-04-15T06:17:39;5.10;99.90
46706;DHT22;33519;50.712;7.124;2023-04-15T06:20:06;5.20;99.90
46706;DHT22;33519;50.712;7.124;2023-04-15T06:22:34;5.30;99.90
46706;DHT22;33519;50.712;7.124;2023-04-15T06:25:02;5.50;99.90
46706;DHT22;33519;50.712;7.124;2023-04-15T06:27:29;5.60;99.90
46706;DHT22;33519;50.712;7.124;2023-04-15T06:29:56;5.80;99.90
46706;DHT22;33519;50.712;7.124;2023-04-15T06:32:22;5.80;99.90
46706;DHT22;33519;50.712;7.124;2023-04-15T06:34:50;5.90;99.90
46706;DHT22;33519;50.712;7.124;2023-04-15T06:37:17;6.00;99.90
46706;DHT22;33519;50.712;7.124;2023-04-15T06:39:44;6.20;99.90
46706;DHT22;33519;50.712;7.124;2023-04-15T06:42:11;6.30;99.90
46706;DHT22;33519;50.712;7.124;2023-04-15T06:44:37;6.40;99.90
46706;DHT22;33519;50.712;7.124;2023-04-15T06:47:04;6.60;99.90
46706;DHT22;33519;50.712;7.124;2023-04-15T06:49:31;6.80;99.90
46706;DHT22;33519;50.712;7.124;2023-04-15T06:51:59;7.00;99.90
46706;DHT22;33519;50.712;7.124;2023-04-15T06:54:26;7.20;99.90
46706;DHT22;33519;50.712;7.124;2023-04-15T06:56:53;7.20;99.90
46706;DHT22;33519;50.712;7.124;2023-04-15T06:59:19;7.50;99.90
46706;DHT22;33519;50.712;7.124;2023-04-15T07:01:46;7.50;99.90
46706;DHT22;33519;50.712;7.124;2023-04-15T07:04:13;7.40;99.90
46706;DHT22;33519;50.712;7.124;2023-04-15T07:06:39;7.50;99.90
46706;DHT22;33519;50.712;7.124;2023-04-15T07:09:07;7.60;99.90
46706;DHT22;33519;50.712;7.124;2023-04-15T07:11:34;7.80;99.90
46706;DHT22;33519;50.712;7.124;2023-04-15T07:14:00;8.10;99.90
46706;DHT22;33519;50.712;7.124;2023-04-15T07:16:30;8.20;99.90
46706;DHT22;33519;50.712;7.124;2023-04-15T07:18:56;8.20;99.90
46706;DHT22;33519;50.712;7.124;2023-04-15T07:21:24;8.20;99.90
46706;DHT22;33519;50.712;7.124;2023-04-15T07:23:51;8.70;99.90
46706;DHT22;33519;50.712;7.124;2023-04-15T07:26:17;8.80;99.90
46706;DHT22;33519;50.712;7.124;2023-04-15T07:28:44;8.70;99.90
46706;DHT22;33519;50.712;7.124;2023-04-15T07:31:12;8.70;99.90
46706;DHT22;33519;50.712;7.124;2023-04-15T07:33:39;8.90;99.90
46706;DHT22;33519;50.712;7.124;2023-04-15T07:36:06;9.10;99.90
46706;DHT22;33519;50.712;7.124;2023-04-15T07:38:32;9.20;99.90
46706;DHT22;33519;50.712;7.124;2023-04-15T07:40:59;9.20;99.90
46706;DHT22;33519;50.712;7.124;2023-04-15T07:43:25;9.30;99.90
46706;DHT22;33519;50.712;7.124;2023-04-15T07:45:52;9.50;99.90
46706;DHT22;33519;50.712;7.124;2023-04-15T07:48:19;9.90;99.90
46706;DHT22;33519;50.712;7.124;2023-04-15T07:50:45;10.10;99.90
46706;DHT22;33519;50.712;7.124;2023-04-15T07:53:12;10.00;99.90
46706;DHT22;33519;50.712;7.124;2023-04-15T07:55:39;10.00;99.90
46706;DHT22;33519;50.712;7.124;2023-04-15T07:58:05;10.20;99.90
46706;DHT22;33519;50.712;7.124;2023-04-15T08:00:32;10.50;99.90
46706;DHT22;33519;50.712;7.124;2023-04-15T08:02:59;10.30;99.90
46706;DHT22;33519;50.712;7.124;2023-04-15T08:05:26;10.50;99.90
46706;DHT22;33519;50.712;7.124;2023-04-15T08:07:52;10.70;99.90
46706;DHT22;33519;50.712;7.124;2023-04-15T08:10:19;10.90;99.90
46706;DHT22;33519;50.712;7.124;2023-04-15T08:12:46;11.10;99.90
46706;DHT22;33519;50.712;7.124;2023-04-15T08:15:14;10.70;99.90
46706;DHT22;33519;50.712;7.124;2023-04-15T08:17:42;10.50;99.90
46706;DHT22;33519;50.712;7.124;2023-04-15T08:20:09;10.80;99.90
46706;DHT22;33519;50.712;7.124;2023-04-15T08:22:35;10.70;99.90
46706;DHT22;33519;50.712;7.124;2023-04-15T08:25:02;11.00;99.90
46706;DHT22;33519;50.712;7.124;2023-04-15T08:27:29;11.30;99.90
46706;DHT22;33519;50.712;7.124;2023-04-15T08:29:55;11.30;99.90
46706;DHT22;33519;50.712;7.124;2023-04-15T08:32:22;11.60;99.90
46706;DHT22;33519;50.712;7.124;2023-04-15T08:34:48;11.60;99.90
46706;DHT22;33519;50.712;7.124;2023-04-15T08:37:15;11.70;99.90
46706;DHT22;33519;50.712;7.124;2023-04-15T08:39:42;11.80;99.90
46706;DHT22;33519;50.712;7.124;2023-04-15T08:42:11;11.50;99.90
46706;DHT22;33519;50.712;7.124;2023-04-15T08:44:41;12.10;99.90
46706;DHT22;33519;50.712;7.124;2023-04-15T08:47:09;11.90;99.90
46706;DHT22;33519;50.712;7.124;2023-04-15T08:49:38;11.90;99.90
46706;DHT22;33519;50.712;7.124;2023-04-15T08:52:07;12.20;99.90
46706;DHT22;33519;50.712;7.124;2023-04-15T08:54:34;12.50;99.90
46706;DHT22;33519;50.712;7.124;2023-04-15T08:57:02;12.60;99.90
46706;DHT22;33519;50.712;7.124;2023-04-15T08:59:29;12.50;99.90
46706;DHT22;33519;50.712;7.124;2023-04-15T09:01:56;12.40;99.90
46706;DHT22;33519;50.712;7.124;2023-04-15T09:04:23;12.70;99.90
46706;DHT22;33519;50.712;7.124;2023-04-15T09:06:50;12.70;99.90
46706;DHT22;33519;50.712;7.124;2023-04-15T09:09:20;13.00;99.90
46706;DHT22;33519;50.712;7.124;2023-04-15T09:11:50;13.40;99.90
46706;DHT22;33519;50.712;7.124;2023-04-15T09:14:17;13.80;99.90
46706;DHT22;33519;50.712;7.124;2023-04-15T09:19:26;13.60;99.70
46706;DHT22;33519;50.712;7.124;2023-04-15T09:21:54;13.90;95.80
46706;DHT22;33519;50.712;7.124;2023-04-15T09:24:37;14.70;94.10
46706;DHT22;33519;50.712;7.124;2023-04-15T09:27:04;15.50;92.70
46706;DHT22;33519;50.712;7.124;2023-04-15T09:29:34;15.30;90.20
46706;DHT22;33519;50.712;7.124;2023-04-15T09:32:12;14.70;90.90
46706;DHT22;33519;50.712;7.124;2023-04-15T09:34:39;14.10;92.00
46706;DHT22;33519;50.712;7.124;2023-04-15T09:37:06;14.30;92.30
46706;DHT22;33519;50.712;7.124;2023-04-15T09:42:35;14.20;91.50
46706;DHT22;33519;50.712;7.124;2023-04-15T09:45:09;14.30;91.30
46706;DHT22;33519;50.712;7.124;2023-04-15T09:47:37;15.40;87.60
46706;DHT22;33519;50.712;7.124;2023-04-15T09:50:06;15.20;85.90
46706;DHT22;33519;50.712;7.124;2023-04-15T09:52:33;15.40;86.90
46706;DHT22;33519;50.712;7.124;2023-04-15T09:55:06;15.40;86.60
46706;DHT22;33519;50.712;7.124;2023-04-15T09:57:34;15.30;85.60
46706;DHT22;33519;50.712;7.124;2023-04-15T10:00:05;14.90;86.30
46706;DHT22;33519;50.712;7.124;2023-04-15T10:02:35;15.30;85.20
46706;DHT22;33519;50.712;7.124;2023-04-15T10:05:02;16.20;82.40
46706;DHT22;33519;50.712;7.124;2023-04-15T10:07:29;18.60;76.20
46706;DHT22;33519;50.712;7.124;2023-04-15T10:09:56;18.20;75.80
46706;DHT22;33519;50.712;7.124;2023-04-15T10:12:25;18.10;75.30
46706;DHT22;33519;50.712;7.124;2023-04-15T10:14:54;19.20;74.00
46706;DHT22;33519;50.712;7.124;2023-04-15T10:17:21;17.40;75.70
46706;DHT22;33519;50.712;7.124;2023-04-15T10:19:49;16.20;76.90
46706;DHT22;33519;50.712;7.124;2023-04-15T10:22:21;16.40;78.50
46706;DHT22;33519;50.712;7.124;2023-04-15T10:24:48;16.90;78.90
46706;DHT22;33519;50.712;7.124;2023-04-15T10:27:16;17.40;78.10
46706;DHT22;33519;50.712;7.124;2023-04-15T10:29:43;18.20;74.00
46706;DHT22;33519;50.712;7.124;2023-04-15T10:32:12;18.30;74.20
46706;DHT22;33519;50.712;7.124;2023-04-15T10:34:41;19.00;72.90
46706;DHT22;33519;50.712;7.124;2023-04-15T10:37:11;18.00;73.70
46706;DHT22;33519;50.712;7.124;2023-04-15T10:39:38;17.60;75.60
46706;DHT22;33519;50.712;7.124;2023-04-15T10:42:06;16.70;78.10
46706;DHT22;33519;50.712;7.124;2023-04-15T10:44:34;17.40;74.80
46706;DHT22;33519;50.712;7.124;2023-04-15T10:47:04;16.90;77.30
46706;DHT22;33519;50.712;7.124;2023-04-15T10:49:30;15.90;79.10
46706;DHT22;33519;50.712;7.124;2023-04-15T10:51:57;14.60;83.10
46706;DHT22;33519;50.712;7.124;2023-04-15T10:59:30;15.50;83.40
46706;DHT22;33519;50.712;7.124;2023-04-15T11:01:59;15.50;83.90
46706;DHT22;33519;50.712;7.124;2023-04-15T11:07:12;15.80;84.40
46706;DHT22;33519;50.712;7.124;2023-04-15T11:09:39;16.80;81.10
46706;DHT22;33519;50.712;7.124;2023-04-15T11:12:07;16.40;80.70
46706;DHT22;33519;50.712;7.124;2023-04-15T11:14:38;15.90;85.60
46706;DHT22;33519;50.712;7.124;2023-04-15T11:17:05;15.60;86.70
46706;DHT22;33519;50.712;7.124;2023-04-15T11:19:35;16.60;84.40
46706;DHT22;33519;50.712;7.124;2023-04-15T11:22:09;16.10;85.10
46706;DHT22;33519;50.712;7.124;2023-04-15T11:24:45;16.20;85.30
46706;DHT22;33519;50.712;7.124;2023-04-15T11:27:22;15.90;85.20
46706;DHT22;33519;50.712;7.124;2023-04-15T11:29:49;15.40;88.30
46706;DHT22;33519;50.712;7.124;2023-04-15T11:32:15;15.20;88.80
46706;DHT22;33519;50.712;7.124;2023-04-15T11:34:44;14.90;90.50
46706;DHT22;33519;50.712;7.124;2023-04-15T11:37:11;14.90;90.50
46706;DHT22;33519;50.712;7.124;2023-04-15T11:39:38;14.40;91.30
46706;DHT22;33519;50.712;7.124;2023-04-15T11:42:15;14.30;92.60
46706;DHT22;33519;50.712;7.124;2023-04-15T11:44:42;14.70;91.80
46706;DHT22;33519;50.712;7.124;2023-04-15T11:47:24;14.70;91.40
46706;DHT22;33519;50.712;7.124;2023-04-15T11:49:51;14.60;92.10
46706;DHT22;33519;50.712;7.124;2023-04-15T11:52:17;14.50;92.80
46706;DHT22;33519;50.712;7.124;2023-04-15T11:54:44;14.50;92.60
46706;DHT22;33519;50.712;7.124;2023-04-15T11:57:11;14.10;93.50
46706;DHT22;33519;50.712;7.124;2023-04-15T11:59:43;13.50;94.10
46706;DHT22;33519;50.712;7.124;2023-04-15T12:02:12;13.50;95.50
46706;DHT22;33519;50.712;7.124;2023-04-15T12:04:39;13.30;95.80
46706;DHT22;33519;50.712;7.124;2023-04-15T12:07:09;13.60;96.80
46706;DHT22;33519;50.712;7.124;2023-04-15T12:09:36;13.90;95.70
46706;DHT22;33519;50.712;7.124;2023-04-15T12:12:03;14.00;95.40
46706;DHT22;33519;50.712;7.124;2023-04-15T12:14:30;14.20;95.50
46706;DHT22;33519;50.712;7.124;2023-04-15T12:17:01;14.10;95.40
46706;DHT22;33519;50.712;7.124;2023-04-15T12:19:33;14.00;95.50
46706;DHT22;33519;50.712;7.124;2023-04-15T12:22:01;13.80;95.60
46706;DHT22;33519;50.712;7.124;2023-04-15T12:24:32;13.80;96.30
46706;DHT22;33519;50.712;7.124;2023-04-15T12:27:02;13.50;96.80
46706;DHT22;33519;50.712;7.124;2023-04-15T12:29:29;13.30;97.20
46706;DHT22;33519;50.712;7.124;2023-04-15T12:31:57;12.80;98.20
46706;DHT22;33519;50.712;7.124;2023-04-15T12:34:27;13.00;99.20
46706;DHT22;33519;50.712;7.124;2023-04-15T12:36:55;12.90;99.50
46706;DHT22;33519;50.712;7.124;2023-04-15T12:39:22;12.60;99.70
46706;DHT22;33519;50.712;7.124;2023-04-15T12:41:50;12.70;99.90
46706;DHT22;33519;50.712;7.124;2023-04-15T12:44:16;12.50;99.90
46706;DHT22;33519;50.712;7.124;2023-04-15T12:46:44;12.60;99.90
46706;DHT22;33519;50.712;7.124;2023-04-15T12:49:11;12.60;99.90
46706;DHT22;33519;50.712;7.124;2023-04-15T12:51:40;12.30;99.90
46706;DHT22;33519;50.712;7.124;2023-04-15T12:54:06;12.40;99.90
46706;DHT22;33519;50.712;7.124;2023-04-15T12:56:33;12.30;99.90
46706;DHT22;33519;50.712;7.124;2023-04-15T12:59:00;12.10;99.90
46706;DHT22;33519;50.712;7.124;2023-04-15T13:01:26;12.10;99.90
46706;DHT22;33519;50.712;7.124;2023-04-15T13:03:53;12.20;99.90
46706;DHT22;33519;50.712;7.124;2023-04-15T13:06:20;12.30;99.90
46706;DHT22;33519;50.712;7.124;2023-04-15T13:08:50;12.30;99.90
46706;DHT22;33519;50.712;7.124;2023-04-15T13:11:24;12.20;99.90
46706;DHT22;33519;50.712;7.124;2023-04-15T13:13:53;12.10;99.90
46706;DHT22;33519;50.712;7.124;2023-04-15T13:16:20;12.00;99.90
46706;DHT22;33519;50.712;7.124;2023-04-15T13:18:47;12.00;99.90
46706;DHT22;33519;50.712;7.124;2023-04-15T13:21:14;12.10;99.90
46706;DHT22;33519;50.712;7.124;2023-04-15T13:23:41;12.20;99.90
46706;DHT22;33519;50.712;7.124;2023-04-15T13:26:22;12.10;99.90
46706;DHT22;33519;50.712;7.124;2023-04-15T13:28:48;11.90;99.90
46706;DHT22;33519;50.712;7.124;2023-04-15T13:31:16;12.00;99.90
46706;DHT22;33519;50.712;7.124;2023-04-15T13:33:43;11.90;99.90
46706;DHT22;33519;50.712;7.124;2023-04-15T13:36:09;11.90;99.90
46706;DHT22;33519;50.712;7.124;2023-04-15T13:38:36;12.10;99.90
46706;DHT22;33519;50.712;7.124;2023-04-15T13:41:03;11.90;99.90
46706;DHT22;33519;50.712;7.124;2023-04-15T13:43:30;11.80;99.90
46706;DHT22;33519;50.712;7.124;2023-04-15T13:45:58;11.90;99.90
46706;DHT22;33519;50.712;7.124;2023-04-15T13:48:25;11.80;99.90
46706;DHT22;33519;50.712;7.124;2023-04-15T13:50:52;12.00;99.90
46706;DHT22;33519;50.712;7.124;2023-04-15T13:53:19;11.80;99.90
46706;DHT22;33519;50.712;7.124;2023-04-15T13:55:59;11.90;99.90
46706;DHT22;33519;50.712;7.124;2023-04-15T13:58:26;11.80;99.90
46706;DHT22;33519;50.712;7.124;2023-04-15T14:00:55;11.60;99.90
46706;DHT22;33519;50.712;7.124;2023-04-15T14:03:22;11.40;99.90
46706;DHT22;33519;50.712;7.124;2023-04-15T14:05:49;11.50;99.90
46706;DHT22;33519;50.712;7.124;2023-04-15T14:08:21;11.40;99.90
46706;DHT22;33519;50.712;7.124;2023-04-15T14:10:48;11.40;99.90
46706;DHT22;33519;50.712;7.124;2023-04-15T14:13:14;11.50;99.90
46706;DHT22;33519;50.712;7.124;2023-04-15T14:15:41;11.60;99.90
46706;DHT22;33519;50.712;7.124;2023-04-15T14:18:08;11.40;99.90
46706;DHT22;33519;50.712;7.124;2023-04-15T14:20:37;11.30;99.90
46706;DHT22;33519;50.712;7.124;2023-04-15T14:23:04;11.30;99.90
46706;DHT22;33519;50.712;7.124;2023-04-15T14:25:31;11.30;99.90
46706;DHT22;33519;50.712;7.124;2023-04-15T14:28:00;11.30;99.90
46706;DHT22;33519;50.712;7.124;2023-04-15T14:30:26;11.40;99.90
46706;DHT22;33519;50.712;7.124;2023-04-15T14:32:53;11.20;99.90
46706;DHT22;33519;50.712;7.124;2023-04-15T14:35:21;11.00;99.90
46706;DHT22;33519;50.712;7.124;2023-04-15T14:37:47;11.10;99.90
46706;DHT22;33519;50.712;7.124;2023-04-15T14:40:14;11.10;99.90
46706;DHT22;33519;50.712;7.124;2023-04-15T14:42:43;11.20;99.90
46706;DHT22;33519;50.712;7.124;2023-04-15T14:45:10;11.40;99.90
46706;DHT22;33519;50.712;7.124;2023-04-15T14:47:37;11.20;99.90
46706;DHT22;33519;50.712;7.124;2023-04-15T14:50:04;11.10;99.90
46706;DHT22;33519;50.712;7.124;2023-04-15T14:52:31;11.00;99.90
46706;DHT22;33519;50.712;7.124;2023-04-15T14:57:30;11.00;99.90
46706;DHT22;33519;50.712;7.124;2023-04-15T14:59:59;11.00;99.90
46706;DHT22;33519;50.712;7.124;2023-04-15T15:02:26;11.00;99.90
46706;DHT22;33519;50.712;7.124;2023-04-15T15:05:04;10.90;99.90
46706;DHT22;33519;50.712;7.124;2023-04-15T15:07:35;10.80;99.90
46706;DHT22;33519;50.712;7.124;2023-04-15T15:10:05;10.80;99.90
46706;DHT22;33519;50.712;7.124;2023-04-15T15:12:32;10.80;99.90
46706;DHT22;33519;50.712;7.124;2023-04-15T15:14:59;10.90;99.90
46706;DHT22;33519;50.712;7.124;2023-04-15T15:17:28;10.80;99.90
46706;DHT22;33519;50.712;7.124;2023-04-15T15:19:55;10.70;99.90
46706;DHT22;33519;50.712;7.124;2023-04-15T15:22:22;10.60;99.90
46706;DHT22;33519;50.712;7.124;2023-04-15T15:24:48;10.60;99.90
46706;DHT22;33519;50.712;7.124;2023-04-15T15:27:15;10.50;99.90
46706;DHT22;33519;50.712;7.124;2023-04-15T15:29:42;10.50;99.90
46706;DHT22;33519;50.712;7.124;2023-04-15T15:32:08;10.40;99.90
46706;DHT22;33519;50.712;7.124;2023-04-15T15:34:35;10.30;99.90
46706;DHT22;33519;50.712;7.124;2023-04-15T15:37:05;10.30;99.90
46706;DHT22;33519;50.712;7.124;2023-04-15T15:39:31;10.20;99.90
46706;DHT22;33519;50.712;7.124;2023-04-15T15:41:58;10.20;99.90
46706;DHT22;33519;50.712;7.124;2023-04-15T15:44:25;10.30;99.90
46706;DHT22;33519;50.712;7.124;2023-04-15T15:46:52;10.40;99.90
46706;DHT22;33519;50.712;7.124;2023-04-15T15:49:19;10.50;99.90
46706;DHT22;33519;50.712;7.124;2023-04-15T15:51:54;10.50;99.90
46706;DHT22;33519;50.712;7.124;2023-04-15T15:54:21;10.40;99.90
46706;DHT22;33519;50.712;7.124;2023-04-15T15:56:49;10.40;99.90